sensor_id;sensor_type;location;lat;lon;timestamp;pressure;altitude;pressure_sealevel;temperature;humidity
9935;BME280;5006;41.828;23.478;2024-03-22T00:00:30;90192.38;;;16.59;30.24
9935;BME280;5006;41.828;23.478;2024-03-22T00:01:36;90198.63;;;16.40;30.04
9935;BME280;5006;41.828;23.478;2024-03-22T00:02:41;90193.72;;;16.51;30.16
9935;BME280;5006;41.828;23.478;2024-03-22T00:03:47;90192.19;;;16.34;30.10
9935;BME280;5006;41.828;23.478;2024-03-22T00:04:54;90194.31;;;16.58;30.08
9935;BME280;5006;41.828;23.478;2024-03-22T00:06:00;90191.56;;;16.46;30.44
9935;BME280;5006;41.828;23.478;2024-03-22T00:07:08;90191.00;;;16.35;30.40
9935;BME280;5006;41.828;23.478;2024-03-22T00:08:13;90190.16;;;16.54;30.01
9935;BME280;5006;41.828;23.478;2024-03-22T00:09:18;90189.84;;;16.20;30.32
9935;BME280;5006;41.828;23.478;2024-03-22T00:10:24;90187.00;;;16.43;30.69
9935;BME280;5006;41.828;23.478;2024-03-22T00:11:31;90190.91;;;16.06;30.74
9935;BME280;5006;41.828;23.478;2024-03-22T00:12:37;90186.94;;;16.27;30.84
9935;BME280;5006;41.828;23.478;2024-03-22T00:13:43;90188.91;;;16.10;30.48
9935;BME280;5006;41.828;23.478;2024-03-22T00:14:49;90193.94;;;15.76;30.70
9935;BME280;5006;41.828;23.478;2024-03-22T00:15:55;90184.44;;;16.20;30.56
9935;BME280;5006;41.828;23.478;2024-03-22T00:17:00;90179.94;;;16.29;30.16
9935;BME280;5006;41.828;23.478;2024-03-22T00:18:06;90174.72;;;16.22;30.79
9935;BME280;5006;41.828;23.478;2024-03-22T00:19:11;90179.63;;;16.11;30.84
9935;BME280;5006;41.828;23.478;2024-03-22T00:20:17;90180.94;;;16.03;31.14
9935;BME280;5006;41.828;23.478;2024-03-22T00:21:25;90185.00;;;15.95;31.40
9935;BME280;5006;41.828;23.478;2024-03-22T00:22:32;90187.53;;;15.86;31.76
9935;BME280;5006;41.828;23.478;2024-03-22T00:23:37;90185.16;;;15.72;31.21
9935;BME280;5006;41.828;23.478;2024-03-22T00:24:44;90183.56;;;15.55;31.40
9935;BME280;5006;41.828;23.478;2024-03-22T00:25:51;90181.75;;;15.68;31.64
9935;BME280;5006;41.828;23.478;2024-03-22T00:26:56;90183.44;;;15.62;31.60
9935;BME280;5006;41.828;23.478;2024-03-22T00:28:01;90182.66;;;15.62;31.64
9935;BME280;5006;41.828;23.478;2024-03-22T00:29:07;90187.19;;;15.49;31.65
9935;BME280;5006;41.828;23.478;2024-03-22T00:30:12;90182.06;;;16.22;30.86
9935;BME280;5006;41.828;23.478;2024-03-22T00:31:20;90182.81;;;16.06;31.55
9935;BME280;5006;41.828;23.478;2024-03-22T00:32:26;90180.03;;;15.94;31.63
9935;BME280;5006;41.828;23.478;2024-03-22T00:33:31;90171.91;;;14.84;32.87
9935;BME280;5006;41.828;23.478;2024-03-22T00:34:36;90173.91;;;14.80;32.75
9935;BME280;5006;41.828;23.478;2024-03-22T00:35:43;90175.78;;;15.03;32.87
9935;BME280;5006;41.828;23.478;2024-03-22T00:36:48;90173.53;;;16.23;31.87
9935;BME280;5006;41.828;23.478;2024-03-22T00:37:57;90179.38;;;15.70;31.50
9935;BME280;5006;41.828;23.478;2024-03-22T00:39:03;90174.94;;;15.80;31.94
9935;BME280;5006;41.828;23.478;2024-03-22T00:40:10;90183.56;;;15.55;31.69
9935;BME280;5006;41.828;23.478;2024-03-22T00:41:16;90178.31;;;16.00;32.12
9935;BME280;5006;41.828;23.478;2024-03-22T00:42:24;90185.09;;;15.92;31.85
9935;BME280;5006;41.828;23.478;2024-03-22T00:43:29;90180.25;;;15.83;31.67
9935;BME280;5006;41.828;23.478;2024-03-22T00:44:35;90185.63;;;15.67;31.72
9935;BME280;5006;41.828;23.478;2024-03-22T00:45:40;90185.00;;;15.24;32.02
9935;BME280;5006;41.828;23.478;2024-03-22T00:46:47;90183.81;;;15.25;32.35
9935;BME280;5006;41.828;23.478;2024-03-22T00:47:53;90184.72;;;15.00;32.32
9935;BME280;5006;41.828;23.478;2024-03-22T00:48:58;90179.81;;;15.33;32.41
9935;BME280;5006;41.828;23.478;2024-03-22T00:50:04;90182.78;;;15.39;32.54
9935;BME280;5006;41.828;23.478;2024-03-22T00:51:09;90187.75;;;15.76;31.79
9935;BME280;5006;41.828;23.478;2024-03-22T00:52:15;90191.06;;;15.28;32.04
9935;BME280;5006;41.828;23.478;2024-03-22T00:53:22;90177.63;;;15.44;32.18
9935;BME280;5006;41.828;23.478;2024-03-22T00:54:27;90195.47;;;15.42;31.96
9935;BME280;5006;41.828;23.478;2024-03-22T00:55:34;90180.44;;;15.21;32.06
9935;BME280;5006;41.828;23.478;2024-03-22T00:56:39;90179.75;;;15.88;31.72
9935;BME280;5006;41.828;23.478;2024-03-22T00:57:44;90175.72;;;16.12;31.19
9935;BME280;5006;41.828;23.478;2024-03-22T00:58:50;90176.28;;;15.88;31.79
9935;BME280;5006;41.828;23.478;2024-03-22T00:59:57;90180.69;;;15.46;32.46
9935;BME280;5006;41.828;23.478;2024-03-22T01:01:04;90185.81;;;15.76;32.15
9935;BME280;5006;41.828;23.478;2024-03-22T01:02:09;90178.28;;;15.52;31.96
9935;BME280;5006;41.828;23.478;2024-03-22T01:03:14;90181.59;;;15.75;32.31
9935;BME280;5006;41.828;23.478;2024-03-22T01:04:40;90176.72;;;16.18;31.93
9935;BME280;5006;41.828;23.478;2024-03-22T01:05:45;90179.56;;;15.95;31.57
9935;BME280;5006;41.828;23.478;2024-03-22T01:06:51;90175.00;;;15.76;31.66
9935;BME280;5006;41.828;23.478;2024-03-22T01:07:56;90178.47;;;15.03;32.39
9935;BME280;5006;41.828;23.478;2024-03-22T01:09:04;90180.59;;;15.85;31.98
9935;BME280;5006;41.828;23.478;2024-03-22T01:10:10;90176.03;;;15.27;32.01
9935;BME280;5006;41.828;23.478;2024-03-22T01:11:15;90184.97;;;15.63;31.80
9935;BME280;5006;41.828;23.478;2024-03-22T01:12:20;90178.81;;;15.24;32.47
9935;BME280;5006;41.828;23.478;2024-03-22T01:13:26;90178.19;;;15.36;32.55
9935;BME280;5006;41.828;23.478;2024-03-22T01:14:31;90177.63;;;15.44;32.48
9935;BME280;5006;41.828;23.478;2024-03-22T01:15:37;90175.84;;;14.80;32.90
9935;BME280;5006;41.828;23.478;2024-03-22T01:16:43;90180.59;;;15.85;31.99
9935;BME280;5006;41.828;23.478;2024-03-22T01:17:50;90180.16;;;15.35;32.16
9935;BME280;5006;41.828;23.478;2024-03-22T01:18:55;90179.16;;;15.07;31.99
9935;BME280;5006;41.828;23.478;2024-03-22T01:20:00;90174.88;;;15.64;32.24
9935;BME280;5006;41.828;23.478;2024-03-22T01:21:05;90183.41;;;15.08;33.52
9935;BME280;5006;41.828;23.478;2024-03-22T01:22:11;90181.88;;;15.45;32.83
9935;BME280;5006;41.828;23.478;2024-03-22T01:23:16;90178.44;;;15.96;32.16
9935;BME280;5006;41.828;23.478;2024-03-22T01:24:23;90179.91;;;15.81;32.54
9935;BME280;5006;41.828;23.478;2024-03-22T01:25:28;90184.03;;;14.96;33.59
9935;BME280;5006;41.828;23.478;2024-03-22T01:26:36;90183.19;;;15.37;33.78
9935;BME280;5006;41.828;23.478;2024-03-22T01:27:41;90183.47;;;15.78;32.22
9935;BME280;5006;41.828;23.478;2024-03-22T01:28:46;90188.22;;;16.54;31.90
9935;BME280;5006;41.828;23.478;2024-03-22T01:29:52;90181.34;;;16.82;31.27
9935;BME280;5006;41.828;23.478;2024-03-22T01:30:58;90173.22;;;16.66;31.75
9935;BME280;5006;41.828;23.478;2024-03-22T01:32:04;90186.88;;;15.98;31.67
9935;BME280;5006;41.828;23.478;2024-03-22T01:33:09;90189.91;;;15.29;32.13
9935;BME280;5006;41.828;23.478;2024-03-22T01:34:15;90185.97;;;15.34;32.07
9935;BME280;5006;41.828;23.478;2024-03-22T01:35:20;90190.59;;;16.04;31.99
9935;BME280;5006;41.828;23.478;2024-03-22T01:36:25;90185.53;;;16.99;31.12
9935;BME280;5006;41.828;23.478;2024-03-22T01:37:32;90183.06;;;17.04;31.06
9935;BME280;5006;41.828;23.478;2024-03-22T01:38:38;90190.13;;;16.86;31.85
9935;BME280;5006;41.828;23.478;2024-03-22T01:39:45;90184.41;;;16.96;30.54
9935;BME280;5006;41.828;23.478;2024-03-22T01:40:50;90183.47;;;16.74;31.13
9935;BME280;5006;41.828;23.478;2024-03-22T01:41:56;90188.63;;;15.89;31.82
9935;BME280;5006;41.828;23.478;2024-03-22T01:43:03;90194.50;;;15.68;32.57
9935;BME280;5006;41.828;23.478;2024-03-22T01:44:08;90185.53;;;16.22;32.31
9935;BME280;5006;41.828;23.478;2024-03-22T01:45:14;90184.75;;;16.22;32.26
9935;BME280;5006;41.828;23.478;2024-03-22T01:46:20;90192.41;;;15.75;32.96
9935;BME280;5006;41.828;23.478;2024-03-22T01:47:26;90184.44;;;15.33;34.12
9935;BME280;5006;41.828;23.478;2024-03-22T01:48:31;90191.84;;;15.48;33.23
9935;BME280;5006;41.828;23.478;2024-03-22T01:49:37;90190.75;;;15.07;33.45
9935;BME280;5006;41.828;23.478;2024-03-22T01:50:43;90194.75;;;15.38;33.36
9935;BME280;5006;41.828;23.478;2024-03-22T01:51:50;90179.31;;;15.38;33.50
9935;BME280;5006;41.828;23.478;2024-03-22T01:52:56;90190.34;;;14.89;34.40
9935;BME280;5006;41.828;23.478;2024-03-22T01:54:03;90190.16;;;14.57;34.56
9935;BME280;5006;41.828;23.478;2024-03-22T01:55:11;90188.22;;;14.58;34.06
9935;BME280;5006;41.828;23.478;2024-03-22T01:56:16;90191.09;;;14.90;33.85
9935;BME280;5006;41.828;23.478;2024-03-22T01:57:23;90196.00;;;14.95;33.78
9935;BME280;5006;41.828;23.478;2024-03-22T01:58:29;90190.69;;;14.49;33.96
9935;BME280;5006;41.828;23.478;2024-03-22T01:59:35;90192.84;;;14.57;33.79
9935;BME280;5006;41.828;23.478;2024-03-22T02:00:41;90198.66;;;14.56;34.58
9935;BME280;5006;41.828;23.478;2024-03-22T02:01:48;90189.41;;;14.34;34.96
9935;BME280;5006;41.828;23.478;2024-03-22T02:02:54;90206.06;;;14.29;33.99
9935;BME280;5006;41.828;23.478;2024-03-22T02:03:59;90194.09;;;14.72;34.14
9935;BME280;5006;41.828;23.478;2024-03-22T02:05:13;90195.75;;;14.47;34.49
9935;BME280;5006;41.828;23.478;2024-03-22T02:06:19;90200.69;;;14.71;33.73
9935;BME280;5006;41.828;23.478;2024-03-22T02:07:24;90193.78;;;14.90;33.17
9935;BME280;5006;41.828;23.478;2024-03-22T02:08:33;90187.22;;;15.29;33.26
9935;BME280;5006;41.828;23.478;2024-03-22T02:09:38;90199.13;;;15.13;33.02
9935;BME280;5006;41.828;23.478;2024-03-22T02:10:46;90208.13;;;15.25;32.80
9935;BME280;5006;41.828;23.478;2024-03-22T02:11:52;90202.88;;;15.38;32.39
9935;BME280;5006;41.828;23.478;2024-03-22T02:12:57;90196.91;;;15.46;32.57
9935;BME280;5006;41.828;23.478;2024-03-22T02:14:03;90202.97;;;14.73;32.93
9935;BME280;5006;41.828;23.478;2024-03-22T02:15:09;90195.25;;;15.33;32.46
9935;BME280;5006;41.828;23.478;2024-03-22T02:16:16;90201.47;;;15.11;32.72
9935;BME280;5006;41.828;23.478;2024-03-22T02:17:21;90199.59;;;14.69;32.87
9935;BME280;5006;41.828;23.478;2024-03-22T02:18:26;90199.47;;;14.07;34.36
9935;BME280;5006;41.828;23.478;2024-03-22T02:19:32;90201.41;;;14.06;34.71
9935;BME280;5006;41.828;23.478;2024-03-22T02:20:38;90198.94;;;13.92;35.40
9935;BME280;5006;41.828;23.478;2024-03-22T02:21:43;90194.50;;;13.79;35.60
9935;BME280;5006;41.828;23.478;2024-03-22T02:22:48;90196.34;;;14.35;35.51
9935;BME280;5006;41.828;23.478;2024-03-22T02:23:55;90206.94;;;15.07;34.53
9935;BME280;5006;41.828;23.478;2024-03-22T02:25:01;90200.78;;;15.65;33.91
9935;BME280;5006;41.828;23.478;2024-03-22T02:26:07;90206.94;;;15.81;33.19
9935;BME280;5006;41.828;23.478;2024-03-22T02:27:12;90199.47;;;15.69;33.25
9935;BME280;5006;41.828;23.478;2024-03-22T02:28:18;90201.72;;;15.74;33.31
9935;BME280;5006;41.828;23.478;2024-03-22T02:29:23;90204.28;;;15.62;33.00
9935;BME280;5006;41.828;23.478;2024-03-22T02:30:29;90202.22;;;15.50;33.34
9935;BME280;5006;41.828;23.478;2024-03-22T02:31:35;90203.38;;;15.68;33.13
9935;BME280;5006;41.828;23.478;2024-03-22T02:32:40;90207.50;;;15.57;33.31
9935;BME280;5006;41.828;23.478;2024-03-22T02:33:46;90212.06;;;15.21;33.73
9935;BME280;5006;41.828;23.478;2024-03-22T02:34:51;90211.94;;;15.28;33.58
9935;BME280;5006;41.828;23.478;2024-03-22T02:35:57;90207.28;;;15.48;33.45
9935;BME280;5006;41.828;23.478;2024-03-22T02:37:02;90204.97;;;16.01;33.17
9935;BME280;5006;41.828;23.478;2024-03-22T02:38:08;90206.59;;;15.63;33.62
9935;BME280;5006;41.828;23.478;2024-03-22T02:39:15;90209.47;;;15.72;33.82
9935;BME280;5006;41.828;23.478;2024-03-22T02:40:21;90201.31;;;15.92;33.06
9935;BME280;5006;41.828;23.478;2024-03-22T02:41:26;90206.72;;;15.17;33.86
9935;BME280;5006;41.828;23.478;2024-03-22T02:42:31;90204.53;;;15.51;33.47
9935;BME280;5006;41.828;23.478;2024-03-22T02:43:37;90197.31;;;15.25;33.51
9935;BME280;5006;41.828;23.478;2024-03-22T02:44:42;90198.16;;;15.22;34.23
9935;BME280;5006;41.828;23.478;2024-03-22T02:45:48;90200.34;;;14.89;34.90
9935;BME280;5006;41.828;23.478;2024-03-22T02:46:53;90199.38;;;14.60;34.90
9935;BME280;5006;41.828;23.478;2024-03-22T02:47:59;90200.19;;;14.57;35.38
9935;BME280;5006;41.828;23.478;2024-03-22T02:49:04;90206.63;;;13.94;36.04
9935;BME280;5006;41.828;23.478;2024-03-22T02:50:10;90201.22;;;12.78;36.49
9935;BME280;5006;41.828;23.478;2024-03-22T02:51:15;90199.81;;;12.66;37.27
9935;BME280;5006;41.828;23.478;2024-03-22T02:52:22;90201.34;;;13.30;36.65
9935;BME280;5006;41.828;23.478;2024-03-22T02:53:28;90198.94;;;13.09;37.05
9935;BME280;5006;41.828;23.478;2024-03-22T02:54:35;90201.38;;;14.33;35.80
9935;BME280;5006;41.828;23.478;2024-03-22T02:55:41;90211.66;;;14.15;35.52
9935;BME280;5006;41.828;23.478;2024-03-22T02:56:48;90206.03;;;14.06;35.77
9935;BME280;5006;41.828;23.478;2024-03-22T02:57:55;90211.34;;;13.86;35.88
9935;BME280;5006;41.828;23.478;2024-03-22T02:59:01;90220.09;;;15.05;34.63
9935;BME280;5006;41.828;23.478;2024-03-22T03:00:08;90219.81;;;15.58;33.48
9935;BME280;5006;41.828;23.478;2024-03-22T03:01:14;90219.06;;;15.57;33.44
9935;BME280;5006;41.828;23.478;2024-03-22T03:02:19;90225.72;;;15.72;33.44
9935;BME280;5006;41.828;23.478;2024-03-22T03:03:25;90216.91;;;16.20;33.43
9935;BME280;5006;41.828;23.478;2024-03-22T03:04:30;90221.47;;;15.71;34.01
9935;BME280;5006;41.828;23.478;2024-03-22T03:05:36;90226.63;;;15.27;35.28
9935;BME280;5006;41.828;23.478;2024-03-22T03:06:41;90225.81;;;15.30;35.82
9935;BME280;5006;41.828;23.478;2024-03-22T03:07:47;90217.50;;;15.40;35.50
9935;BME280;5006;41.828;23.478;2024-03-22T03:08:52;90217.44;;;14.17;35.81
9935;BME280;5006;41.828;23.478;2024-03-22T03:10:00;90211.88;;;14.50;35.79
9935;BME280;5006;41.828;23.478;2024-03-22T03:11:06;90219.56;;;14.02;36.26
9935;BME280;5006;41.828;23.478;2024-03-22T03:12:12;90215.09;;;13.92;37.04
9935;BME280;5006;41.828;23.478;2024-03-22T03:13:17;90226.44;;;13.80;37.11
9935;BME280;5006;41.828;23.478;2024-03-22T03:14:22;90227.44;;;13.67;37.85
9935;BME280;5006;41.828;23.478;2024-03-22T03:15:29;90229.59;;;14.02;37.29
9935;BME280;5006;41.828;23.478;2024-03-22T03:16:35;90224.63;;;14.00;37.34
9935;BME280;5006;41.828;23.478;2024-03-22T03:17:40;90228.16;;;13.67;38.06
9935;BME280;5006;41.828;23.478;2024-03-22T03:18:45;90231.00;;;14.79;36.31
9935;BME280;5006;41.828;23.478;2024-03-22T03:19:51;90230.22;;;14.36;35.90
9935;BME280;5006;41.828;23.478;2024-03-22T03:20:56;90224.81;;;14.82;35.17
9935;BME280;5006;41.828;23.478;2024-03-22T03:22:01;90228.94;;;14.44;35.61
9935;BME280;5006;41.828;23.478;2024-03-22T03:23:07;90225.22;;;13.58;36.99
9935;BME280;5006;41.828;23.478;2024-03-22T03:24:13;90223.91;;;13.70;36.51
9935;BME280;5006;41.828;23.478;2024-03-22T03:25:20;90229.91;;;13.81;37.19
9935;BME280;5006;41.828;23.478;2024-03-22T03:26:26;90226.00;;;12.95;38.25
9935;BME280;5006;41.828;23.478;2024-03-22T03:27:31;90226.38;;;13.31;38.35
9935;BME280;5006;41.828;23.478;2024-03-22T03:28:37;90226.63;;;13.40;37.68
9935;BME280;5006;41.828;23.478;2024-03-22T03:29:42;90222.72;;;13.44;37.65
9935;BME280;5006;41.828;23.478;2024-03-22T03:30:47;90217.72;;;13.13;37.96
9935;BME280;5006;41.828;23.478;2024-03-22T03:31:53;90219.88;;;13.25;37.91
9935;BME280;5006;41.828;23.478;2024-03-22T03:33:00;90217.97;;;13.25;38.04
9935;BME280;5006;41.828;23.478;2024-03-22T03:34:06;90216.13;;;13.19;39.43
9935;BME280;5006;41.828;23.478;2024-03-22T03:35:11;90216.84;;;13.23;37.49
9935;BME280;5006;41.828;23.478;2024-03-22T03:36:16;90212.03;;;13.64;37.18
9935;BME280;5006;41.828;23.478;2024-03-22T03:37:23;90218.63;;;13.89;37.51
9935;BME280;5006;41.828;23.478;2024-03-22T03:38:28;90222.44;;;13.65;37.53
9935;BME280;5006;41.828;23.478;2024-03-22T03:39:33;90219.00;;;13.88;36.48
9935;BME280;5006;41.828;23.478;2024-03-22T03:40:40;90218.72;;;13.82;36.78
9935;BME280;5006;41.828;23.478;2024-03-22T03:41:46;90209.31;;;13.67;37.11
9935;BME280;5006;41.828;23.478;2024-03-22T03:42:52;90222.41;;;13.92;36.29
9935;BME280;5006;41.828;23.478;2024-03-22T03:43:58;90220.13;;;14.17;36.48
9935;BME280;5006;41.828;23.478;2024-03-22T03:45:04;90222.25;;;14.29;36.06
9935;BME280;5006;41.828;23.478;2024-03-22T03:46:11;90218.50;;;14.23;36.00
9935;BME280;5006;41.828;23.478;2024-03-22T03:47:16;90215.13;;;14.15;35.74
9935;BME280;5006;41.828;23.478;2024-03-22T03:48:22;90218.22;;;14.14;35.60
9935;BME280;5006;41.828;23.478;2024-03-22T03:49:28;90219.44;;;14.09;35.96
9935;BME280;5006;41.828;23.478;2024-03-22T03:50:34;90213.88;;;13.97;36.14
9935;BME280;5006;41.828;23.478;2024-03-22T03:51:40;90214.44;;;14.34;35.24
9935;BME280;5006;41.828;23.478;2024-03-22T03:52:48;90215.22;;;14.35;35.47
9935;BME280;5006;41.828;23.478;2024-03-22T03:53:53;90220.84;;;14.44;34.90
9935;BME280;5006;41.828;23.478;2024-03-22T03:54:59;90217.53;;;14.98;34.60
9935;BME280;5006;41.828;23.478;2024-03-22T03:56:08;90218.53;;;14.65;34.62
9935;BME280;5006;41.828;23.478;2024-03-22T03:57:13;90220.13;;;14.63;34.82
9935;BME280;5006;41.828;23.478;2024-03-22T03:58:19;90220.00;;;14.70;34.69
9935;BME280;5006;41.828;23.478;2024-03-22T03:59:24;90211.78;;;14.77;34.46
9935;BME280;5006;41.828;23.478;2024-03-22T04:00:30;90224.22;;;15.32;33.86
9935;BME280;5006;41.828;23.478;2024-03-22T04:01:35;90218.44;;;15.11;33.94
9935;BME280;5006;41.828;23.478;2024-03-22T04:02:41;90218.13;;;14.67;34.19
9935;BME280;5006;41.828;23.478;2024-03-22T04:03:48;90217.69;;;14.49;34.17
9935;BME280;5006;41.828;23.478;2024-03-22T04:04:54;90218.91;;;13.68;35.15
9935;BME280;5006;41.828;23.478;2024-03-22T04:06:01;90217.19;;;14.08;35.21
9935;BME280;5006;41.828;23.478;2024-03-22T04:07:07;90217.31;;;14.70;34.13
9935;BME280;5006;41.828;23.478;2024-03-22T04:08:13;90224.22;;;15.32;33.86
9935;BME280;5006;41.828;23.478;2024-03-22T04:09:18;90220.25;;;15.92;32.76
9935;BME280;5006;41.828;23.478;2024-03-22T04:10:23;90225.03;;;15.49;33.90
9935;BME280;5006;41.828;23.478;2024-03-22T04:11:30;90226.47;;;16.56;32.84
9935;BME280;5006;41.828;23.478;2024-03-22T04:12:36;90227.66;;;16.55;32.69
9935;BME280;5006;41.828;23.478;2024-03-22T04:13:41;90227.84;;;16.48;32.15
9935;BME280;5006;41.828;23.478;2024-03-22T04:14:47;90236.22;;;16.02;32.42
9935;BME280;5006;41.828;23.478;2024-03-22T04:15:53;90241.13;;;14.75;33.77
9935;BME280;5006;41.828;23.478;2024-03-22T04:16:59;90242.34;;;13.71;35.18
9935;BME280;5006;41.828;23.478;2024-03-22T04:18:04;90241.44;;;13.81;36.03
9935;BME280;5006;41.828;23.478;2024-03-22T04:19:09;90240.69;;;14.57;35.94
9935;BME280;5006;41.828;23.478;2024-03-22T04:20:15;90247.53;;;15.23;34.52
9935;BME280;5006;41.828;23.478;2024-03-22T04:21:20;90250.16;;;15.26;35.33
9935;BME280;5006;41.828;23.478;2024-03-22T04:22:26;90243.84;;;14.52;35.41
9935;BME280;5006;41.828;23.478;2024-03-22T04:23:33;90252.56;;;13.27;36.90
9935;BME280;5006;41.828;23.478;2024-03-22T04:24:39;90245.91;;;12.68;38.68
9935;BME280;5006;41.828;23.478;2024-03-22T04:25:52;90254.69;;;13.12;38.21
9935;BME280;5006;41.828;23.478;2024-03-22T04:27:00;90248.78;;;14.57;36.82
9935;BME280;5006;41.828;23.478;2024-03-22T04:28:06;90249.94;;;15.17;35.36
9935;BME280;5006;41.828;23.478;2024-03-22T04:29:11;90257.38;;;15.13;35.51
9935;BME280;5006;41.828;23.478;2024-03-22T04:30:16;90258.16;;;14.49;36.18
9935;BME280;5006;41.828;23.478;2024-03-22T04:31:23;90256.84;;;14.34;37.51
9935;BME280;5006;41.828;23.478;2024-03-22T04:32:29;90261.53;;;14.03;37.64
9935;BME280;5006;41.828;23.478;2024-03-22T04:33:35;90261.06;;;14.08;37.37
9935;BME280;5006;41.828;23.478;2024-03-22T04:34:41;90268.72;;;15.05;36.47
9935;BME280;5006;41.828;23.478;2024-03-22T04:35:47;90265.78;;;15.38;35.78
9935;BME280;5006;41.828;23.478;2024-03-22T04:36:54;90265.75;;;15.77;35.09
9935;BME280;5006;41.828;23.478;2024-03-22T04:38:01;90265.63;;;15.84;35.63
9935;BME280;5006;41.828;23.478;2024-03-22T04:39:07;90265.59;;;14.64;36.86
9935;BME280;5006;41.828;23.478;2024-03-22T04:40:14;90264.19;;;14.56;36.53
9935;BME280;5006;41.828;23.478;2024-03-22T04:41:19;90265.97;;;15.09;35.67
9935;BME280;5006;41.828;23.478;2024-03-22T04:42:27;90274.88;;;15.06;35.56
9935;BME280;5006;41.828;23.478;2024-03-22T04:43:33;90267.72;;;14.76;35.69
9935;BME280;5006;41.828;23.478;2024-03-22T04:44:38;90273.69;;;14.15;36.31
9935;BME280;5006;41.828;23.478;2024-03-22T04:45:45;90265.94;;;13.94;37.07
9935;BME280;5006;41.828;23.478;2024-03-22T04:46:50;90263.47;;;14.03;37.19
9935;BME280;5006;41.828;23.478;2024-03-22T04:47:56;90258.75;;;14.60;36.89
9935;BME280;5006;41.828;23.478;2024-03-22T04:49:02;90262.78;;;14.25;36.89
9935;BME280;5006;41.828;23.478;2024-03-22T04:50:08;90260.38;;;14.04;37.06
9935;BME280;5006;41.828;23.478;2024-03-22T04:51:13;90265.13;;;14.46;36.51
9935;BME280;5006;41.828;23.478;2024-03-22T04:52:19;90269.88;;;14.39;36.51
9935;BME280;5006;41.828;23.478;2024-03-22T04:53:26;90266.44;;;14.38;36.06
9935;BME280;5006;41.828;23.478;2024-03-22T04:54:31;90264.09;;;14.63;36.58
9935;BME280;5006;41.828;23.478;2024-03-22T04:55:36;90266.09;;;14.06;37.46
9935;BME280;5006;41.828;23.478;2024-03-22T04:56:43;90268.81;;;14.56;36.38
9935;BME280;5006;41.828;23.478;2024-03-22T04:57:51;90270.81;;;14.52;35.67
9935;BME280;5006;41.828;23.478;2024-03-22T04:58:56;90263.38;;;15.02;35.68
9935;BME280;5006;41.828;23.478;2024-03-22T05:00:01;90268.47;;;15.19;35.43
9935;BME280;5006;41.828;23.478;2024-03-22T05:01:07;90268.81;;;13.50;37.56
9935;BME280;5006;41.828;23.478;2024-03-22T05:02:14;90275.38;;;12.38;39.43
9935;BME280;5006;41.828;23.478;2024-03-22T05:03:20;90274.13;;;12.06;40.45
9935;BME280;5006;41.828;23.478;2024-03-22T05:04:25;90277.56;;;12.90;38.96
9935;BME280;5006;41.828;23.478;2024-03-22T05:05:30;90283.09;;;13.17;38.88
9935;BME280;5006;41.828;23.478;2024-03-22T05:06:36;90280.22;;;13.61;38.48
9935;BME280;5006;41.828;23.478;2024-03-22T05:07:43;90282.31;;;14.56;37.47
9935;BME280;5006;41.828;23.478;2024-03-22T05:08:49;90284.59;;;14.34;37.03
9935;BME280;5006;41.828;23.478;2024-03-22T05:09:55;90281.75;;;14.18;37.78
9935;BME280;5006;41.828;23.478;2024-03-22T05:11:02;90278.78;;;13.83;38.27
9935;BME280;5006;41.828;23.478;2024-03-22T05:12:08;90280.22;;;13.61;38.21
9935;BME280;5006;41.828;23.478;2024-03-22T05:13:16;90283.63;;;13.35;38.42
9935;BME280;5006;41.828;23.478;2024-03-22T05:14:22;90286.03;;;13.26;39.29
9935;BME280;5006;41.828;23.478;2024-03-22T05:15:29;90285.72;;;13.20;39.26
9935;BME280;5006;41.828;23.478;2024-03-22T05:16:34;90293.53;;;13.11;39.37
9935;BME280;5006;41.828;23.478;2024-03-22T05:17:40;90289.00;;;12.61;40.33
9935;BME280;5006;41.828;23.478;2024-03-22T05:18:47;90286.78;;;13.30;39.92
9935;BME280;5006;41.828;23.478;2024-03-22T05:19:53;90291.97;;;14.30;37.96
9935;BME280;5006;41.828;23.478;2024-03-22T05:20:58;90295.78;;;15.63;36.13
9935;BME280;5006;41.828;23.478;2024-03-22T05:22:05;90297.84;;;15.95;35.67
9935;BME280;5006;41.828;23.478;2024-03-22T05:23:11;90291.03;;;16.74;34.75
9935;BME280;5006;41.828;23.478;2024-03-22T05:24:16;90289.81;;;15.72;35.51
9935;BME280;5006;41.828;23.478;2024-03-22T05:25:22;90291.34;;;14.92;36.20
9935;BME280;5006;41.828;23.478;2024-03-22T05:26:27;90293.50;;;14.31;36.94
9935;BME280;5006;41.828;23.478;2024-03-22T05:27:36;90291.13;;;14.60;36.96
9935;BME280;5006;41.828;23.478;2024-03-22T05:28:43;90292.50;;;14.68;36.98
9935;BME280;5006;41.828;23.478;2024-03-22T05:29:48;90294.06;;;14.69;36.47
9935;BME280;5006;41.828;23.478;2024-03-22T05:30:53;90286.41;;;14.64;36.90
9935;BME280;5006;41.828;23.478;2024-03-22T05:31:59;90293.09;;;14.79;36.86
9935;BME280;5006;41.828;23.478;2024-03-22T05:33:06;90291.00;;;14.67;36.78
9935;BME280;5006;41.828;23.478;2024-03-22T05:34:12;90287.72;;;14.03;38.14
9935;BME280;5006;41.828;23.478;2024-03-22T05:35:17;90292.31;;;14.32;37.62
9935;BME280;5006;41.828;23.478;2024-03-22T05:36:24;90290.34;;;14.10;38.24
9935;BME280;5006;41.828;23.478;2024-03-22T05:37:30;90288.78;;;14.85;36.78
9935;BME280;5006;41.828;23.478;2024-03-22T05:38:36;90282.25;;;14.82;36.96
9935;BME280;5006;41.828;23.478;2024-03-22T05:39:42;90293.81;;;14.37;37.92
9935;BME280;5006;41.828;23.478;2024-03-22T05:40:47;90287.50;;;14.70;37.44
9935;BME280;5006;41.828;23.478;2024-03-22T05:41:53;90290.97;;;14.21;37.43
9935;BME280;5006;41.828;23.478;2024-03-22T05:43:00;90288.69;;;13.89;38.00
9935;BME280;5006;41.828;23.478;2024-03-22T05:44:07;90289.41;;;13.93;37.95
9935;BME280;5006;41.828;23.478;2024-03-22T05:45:12;90288.25;;;14.70;36.70
9935;BME280;5006;41.828;23.478;2024-03-22T05:46:19;90293.22;;;14.49;36.57
9935;BME280;5006;41.828;23.478;2024-03-22T05:47:26;90293.81;;;14.37;36.56
9935;BME280;5006;41.828;23.478;2024-03-22T05:48:31;90298.16;;;14.31;36.87
9935;BME280;5006;41.828;23.478;2024-03-22T05:49:37;90296.00;;;14.68;36.64
9935;BME280;5006;41.828;23.478;2024-03-22T05:50:43;90298.25;;;14.93;36.08
9935;BME280;5006;41.828;23.478;2024-03-22T05:51:49;90302.72;;;14.80;36.42
9935;BME280;5006;41.828;23.478;2024-03-22T05:52:55;90303.41;;;15.68;35.49
9935;BME280;5006;41.828;23.478;2024-03-22T05:54:02;90298.66;;;15.14;35.40